sensor_id;sensor_type;location;lat;lon;timestamp;P1;durP1;ratioP1;P2;durP2;ratioP2
32242;SDS011;18731;42.830;24.390;2022-12-07T02:58:54;41.78;;;16.63;;
32242;SDS011;18731;42.830;24.390;2022-12-07T03:04:26;36.58;;;16.02;;
32242;SDS011;18731;42.830;24.390;2022-12-07T03:12:47;26.25;;;12.35;;
32242;SDS011;18731;42.830;24.390;2022-12-07T03:15:24;27.40;;;13.07;;
32242;SDS011;18731;42.830;24.390;2022-12-07T03:17:58;31.20;;;12.25;;
32242;SDS011;18731;42.830;24.390;2022-12-07T03:20:27;28.58;;;13.15;;
32242;SDS011;18731;42.830;24.390;2022-12-07T03:22:54;26.25;;;11.07;;
32242;SDS011;18731;42.830;24.390;2022-12-07T03:25:21;23.02;;;10.75;;
32242;SDS011;18731;42.830;24.390;2022-12-07T03:27:49;21.85;;;11.02;;
32242;SDS011;18731;42.830;24.390;2022-12-07T03:30:31;25.92;;;10.48;;
32242;SDS011;18731;42.830;24.390;2022-12-07T03:33:07;20.30;;;9.95;;
32242;SDS011;18731;42.830;24.390;2022-12-07T03:35:57;44.15;;;22.02;;
32242;SDS011;18731;42.830;24.390;2022-12-07T03:38:36;41.80;;;18.77;;
32242;SDS011;18731;42.830;24.390;2022-12-07T03:41:26;42.00;;;20.42;;
32242;SDS011;18731;42.830;24.390;2022-12-07T03:43:54;43.95;;;18.38;;
32242;SDS011;18731;42.830;24.390;2022-12-07T03:49:25;39.00;;;17.25;;
32242;SDS011;18731;42.830;24.390;2022-12-07T03:51:59;35.22;;;18.00;;
32242;SDS011;18731;42.830;24.390;2022-12-07T03:54:39;56.58;;;29.38;;
32242;SDS011;18731;42.830;24.390;2022-12-07T03:57:10;39.30;;;18.30;;
32242;SDS011;18731;42.830;24.390;2022-12-07T03:59:37;39.17;;;19.35;;
32242;SDS011;18731;42.830;24.390;2022-12-07T04:02:04;30.73;;;15.05;;
32242;SDS011;18731;42.830;24.390;2022-12-07T04:04:32;26.48;;;14.00;;
32242;SDS011;18731;42.830;24.390;2022-12-07T04:06:59;27.83;;;14.93;;
32242;SDS011;18731;42.830;24.390;2022-12-07T04:09:25;22.48;;;11.25;;
32242;SDS011;18731;42.830;24.390;2022-12-07T04:11:51;24.30;;;10.98;;
32242;SDS011;18731;42.830;24.390;2022-12-07T04:14:17;23.08;;;11.63;;
32242;SDS011;18731;42.830;24.390;2022-12-07T04:16:50;25.40;;;12.60;;
32242;SDS011;18731;42.830;24.390;2022-12-07T04:19:21;23.58;;;13.32;;
32242;SDS011;18731;42.830;24.390;2022-12-07T04:21:49;24.13;;;12.25;;
32242;SDS011;18731;42.830;24.390;2022-12-07T04:24:15;19.58;;;9.80;;
32242;SDS011;18731;42.830;24.390;2022-12-07T04:26:41;21.55;;;9.32;;
32242;SDS011;18731;42.830;24.390;2022-12-07T04:29:08;18.17;;;9.95;;
32242;SDS011;18731;42.830;24.390;2022-12-07T04:31:35;19.50;;;10.38;;
32242;SDS011;18731;42.830;24.390;2022-12-07T04:34:01;55.08;;;23.20;;
32242;SDS011;18731;42.830;24.390;2022-12-07T04:36:27;31.58;;;14.35;;
32242;SDS011;18731;42.830;24.390;2022-12-07T04:38:54;29.67;;;13.27;;
32242;SDS011;18731;42.830;24.390;2022-12-07T04:41:20;25.15;;;12.25;;
32242;SDS011;18731;42.830;24.390;2022-12-07T04:43:55;29.13;;;11.73;;
32242;SDS011;18731;42.830;24.390;2022-12-07T04:46:21;25.88;;;10.50;;
32242;SDS011;18731;42.830;24.390;2022-12-07T04:48:48;24.13;;;10.93;;
32242;SDS011;18731;42.830;24.390;2022-12-07T04:51:15;26.25;;;12.05;;
32242;SDS011;18731;42.830;24.390;2022-12-07T04:53:47;19.38;;;10.00;;
32242;SDS011;18731;42.830;24.390;2022-12-07T04:56:14;17.38;;;10.02;;
32242;SDS011;18731;42.830;24.390;2022-12-07T04:58:41;23.33;;;9.57;;
32242;SDS011;18731;42.830;24.390;2022-12-07T05:01:07;28.10;;;14.05;;
32242;SDS011;18731;42.830;24.390;2022-12-07T05:03:33;30.45;;;16.90;;
32242;SDS011;18731;42.830;24.390;2022-12-07T05:05:58;25.70;;;10.82;;
32242;SDS011;18731;42.830;24.390;2022-12-07T05:08:24;31.63;;;15.13;;
32242;SDS011;18731;42.830;24.390;2022-12-07T05:10:49;38.25;;;16.25;;
32242;SDS011;18731;42.830;24.390;2022-12-07T05:13:15;38.85;;;19.90;;
32242;SDS011;18731;42.830;24.390;2022-12-07T05:15:41;34.97;;;17.13;;
32242;SDS011;18731;42.830;24.390;2022-12-07T05:18:09;39.30;;;17.20;;
32242;SDS011;18731;42.830;24.390;2022-12-07T05:20:38;56.03;;;25.45;;
32242;SDS011;18731;42.830;24.390;2022-12-07T05:23:04;57.25;;;23.00;;
32242;SDS011;18731;42.830;24.390;2022-12-07T05:25:29;70.32;;;32.30;;
32242;SDS011;18731;42.830;24.390;2022-12-07T05:27:55;75.68;;;30.98;;
32242;SDS011;18731;42.830;24.390;2022-12-07T05:30:22;46.95;;;22.05;;
32242;SDS011;18731;42.830;24.390;2022-12-07T05:32:48;58.45;;;27.67;;
32242;SDS011;18731;42.830;24.390;2022-12-07T05:35:14;69.47;;;35.08;;
32242;SDS011;18731;42.830;24.390;2022-12-07T05:37:40;42.75;;;20.58;;
32242;SDS011;18731;42.830;24.390;2022-12-07T05:40:05;33.35;;;16.88;;
32242;SDS011;18731;42.830;24.390;2022-12-07T05:42:32;40.38;;;20.00;;
32242;SDS011;18731;42.830;24.390;2022-12-07T05:44:58;52.50;;;25.35;;
32242;SDS011;18731;42.830;24.390;2022-12-07T05:47:23;65.47;;;32.17;;
32242;SDS011;18731;42.830;24.390;2022-12-07T05:49:49;65.80;;;28.65;;
32242;SDS011;18731;42.830;24.390;2022-12-07T05:52:15;34.38;;;16.10;;
32242;SDS011;18731;42.830;24.390;2022-12-07T05:54:41;34.97;;;16.00;;
32242;SDS011;18731;42.830;24.390;2022-12-07T05:57:06;38.78;;;17.85;;
32242;SDS011;18731;42.830;24.390;2022-12-07T05:59:32;44.17;;;20.70;;
32242;SDS011;18731;42.830;24.390;2022-12-07T06:01:59;27.05;;;15.15;;
32242;SDS011;18731;42.830;24.390;2022-12-07T06:04:30;42.33;;;21.42;;
32242;SDS011;18731;42.830;24.390;2022-12-07T06:06:58;52.67;;;24.60;;
32242;SDS011;18731;42.830;24.390;2022-12-07T06:09:24;38.90;;;17.63;;
32242;SDS011;18731;42.830;24.390;2022-12-07T06:11:52;28.08;;;15.07;;
32242;SDS011;18731;42.830;24.390;2022-12-07T06:14:36;35.50;;;15.88;;
32242;SDS011;18731;42.830;24.390;2022-12-07T06:17:02;46.97;;;18.77;;
32242;SDS011;18731;42.830;24.390;2022-12-07T06:19:28;44.20;;;22.52;;
32242;SDS011;18731;42.830;24.390;2022-12-07T06:21:54;48.60;;;25.98;;
32242;SDS011;18731;42.830;24.390;2022-12-07T06:24:20;46.92;;;23.27;;
32242;SDS011;18731;42.830;24.390;2022-12-07T06:26:46;51.95;;;26.15;;
32242;SDS011;18731;42.830;24.390;2022-12-07T06:29:12;120.28;;;52.65;;
32242;SDS011;18731;42.830;24.390;2022-12-07T06:31:38;137.15;;;58.63;;
32242;SDS011;18731;42.830;24.390;2022-12-07T06:34:05;131.35;;;56.05;;
32242;SDS011;18731;42.830;24.390;2022-12-07T06:36:33;63.63;;;36.15;;
32242;SDS011;18731;42.830;24.390;2022-12-07T06:38:59;43.45;;;21.77;;
32242;SDS011;18731;42.830;24.390;2022-12-07T06:41:24;40.78;;;21.85;;
32242;SDS011;18731;42.830;24.390;2022-12-07T06:43:50;52.03;;;27.25;;
32242;SDS011;18731;42.830;24.390;2022-12-07T06:46:16;128.68;;;60.80;;
32242;SDS011;18731;42.830;24.390;2022-12-07T06:48:42;78.68;;;41.72;;
32242;SDS011;18731;42.830;24.390;2022-12-07T06:51:08;124.32;;;57.28;;
32242;SDS011;18731;42.830;24.390;2022-12-07T06:53:35;108.10;;;55.28;;
32242;SDS011;18731;42.830;24.390;2022-12-07T06:56:01;99.68;;;48.50;;
32242;SDS011;18731;42.830;24.390;2022-12-07T06:58:27;131.32;;;61.45;;
32242;SDS011;18731;42.830;24.390;2022-12-07T07:00:53;131.70;;;59.97;;
32242;SDS011;18731;42.830;24.390;2022-12-07T07:03:18;95.78;;;46.70;;
32242;SDS011;18731;42.830;24.390;2022-12-07T07:05:44;135.60;;;59.97;;
32242;SDS011;18731;42.830;24.390;2022-12-07T07:08:10;217.30;;;85.95;;
32242;SDS011;18731;42.830;24.390;2022-12-07T07:10:37;106.75;;;45.83;;
32242;SDS011;18731;42.830;24.390;2022-12-07T07:13:03;65.10;;;33.58;;
32242;SDS011;18731;42.830;24.390;2022-12-07T07:15:29;49.65;;;24.27;;
32242;SDS011;18731;42.830;24.390;2022-12-07T07:17:55;38.58;;;20.55;;
32242;SDS011;18731;42.830;24.390;2022-12-07T07:20:21;97.85;;;43.67;;
32242;SDS011;18731;42.830;24.390;2022-12-07T07:22:47;90.38;;;42.63;;
32242;SDS011;18731;42.830;24.390;2022-12-07T07:25:14;77.68;;;37.75;;
32242;SDS011;18731;42.830;24.390;2022-12-07T07:27:40;61.78;;;32.03;;
32242;SDS011;18731;42.830;24.390;2022-12-07T07:30:06;58.00;;;29.73;;
32242;SDS011;18731;42.830;24.390;2022-12-07T07:32:32;47.75;;;25.45;;
32242;SDS011;18731;42.830;24.390;2022-12-07T07:34:58;58.63;;;29.23;;
32242;SDS011;18731;42.830;24.390;2022-12-07T07:37:23;89.65;;;47.42;;
32242;SDS011;18731;42.830;24.390;2022-12-07T07:39:50;83.47;;;42.47;;
32242;SDS011;18731;42.830;24.390;2022-12-07T07:42:16;50.72;;;25.70;;
32242;SDS011;18731;42.830;24.390;2022-12-07T07:44:41;32.67;;;18.02;;
32242;SDS011;18731;42.830;24.390;2022-12-07T07:47:07;31.08;;;14.52;;
32242;SDS011;18731;42.830;24.390;2022-12-07T07:49:33;24.38;;;12.57;;
32242;SDS011;18731;42.830;24.390;2022-12-07T07:51:58;38.33;;;15.10;;
32242;SDS011;18731;42.830;24.390;2022-12-07T07:54:24;26.25;;;12.48;;
32242;SDS011;18731;42.830;24.390;2022-12-07T07:56:49;24.10;;;12.85;;
32242;SDS011;18731;42.830;24.390;2022-12-07T07:59:15;21.10;;;10.60;;
32242;SDS011;18731;42.830;24.390;2022-12-07T08:01:41;29.92;;;14.80;;
32242;SDS011;18731;42.830;24.390;2022-12-07T08:04:06;51.55;;;22.33;;
32242;SDS011;18731;42.830;24.390;2022-12-07T08:06:32;89.10;;;36.95;;
32242;SDS011;18731;42.830;24.390;2022-12-07T08:08:57;18.23;;;8.02;;
32242;SDS011;18731;42.830;24.390;2022-12-07T08:11:23;14.85;;;7.70;;
32242;SDS011;18731;42.830;24.390;2022-12-07T08:13:49;21.23;;;8.60;;
32242;SDS011;18731;42.830;24.390;2022-12-07T08:16:15;30.00;;;12.02;;
32242;SDS011;18731;42.830;24.390;2022-12-07T08:18:41;23.02;;;9.07;;
32242;SDS011;18731;42.830;24.390;2022-12-07T08:21:09;23.17;;;10.10;;
32242;SDS011;18731;42.830;24.390;2022-12-07T08:23:37;28.83;;;10.07;;
32242;SDS011;18731;42.830;24.390;2022-12-07T08:26:04;23.70;;;9.15;;
32242;SDS011;18731;42.830;24.390;2022-12-07T08:28:31;36.65;;;17.05;;
32242;SDS011;18731;42.830;24.390;2022-12-07T08:31:16;56.40;;;28.00;;
32242;SDS011;18731;42.830;24.390;2022-12-07T08:33:44;110.32;;;54.33;;
32242;SDS011;18731;42.830;24.390;2022-12-07T08:36:11;52.55;;;22.77;;
32242;SDS011;18731;42.830;24.390;2022-12-07T08:38:39;38.25;;;17.77;;
32242;SDS011;18731;42.830;24.390;2022-12-07T08:41:05;30.48;;;15.07;;
32242;SDS011;18731;42.830;24.390;2022-12-07T08:43:32;50.58;;;28.38;;
32242;SDS011;18731;42.830;24.390;2022-12-07T08:48:41;18.80;;;8.43;;
32242;SDS011;18731;42.830;24.390;2022-12-07T08:51:12;12.95;;;5.47;;
32242;SDS011;18731;42.830;24.390;2022-12-07T08:53:38;10.75;;;5.60;;
32242;SDS011;18731;42.830;24.390;2022-12-07T08:56:05;24.90;;;12.85;;
32242;SDS011;18731;42.830;24.390;2022-12-07T08:58:33;80.95;;;45.03;;
32242;SDS011;18731;42.830;24.390;2022-12-07T09:01:00;11.88;;;6.13;;
32242;SDS011;18731;42.830;24.390;2022-12-07T09:03:25;13.10;;;7.05;;
32242;SDS011;18731;42.830;24.390;2022-12-07T09:05:52;17.23;;;6.50;;
32242;SDS011;18731;42.830;24.390;2022-12-07T09:08:18;13.85;;;6.43;;
32242;SDS011;18731;42.830;24.390;2022-12-07T09:10:45;17.45;;;8.35;;
32242;SDS011;18731;42.830;24.390;2022-12-07T09:13:13;33.03;;;15.15;;
32242;SDS011;18731;42.830;24.390;2022-12-07T09:15:38;14.43;;;5.88;;
32242;SDS011;18731;42.830;24.390;2022-12-07T09:18:04;12.43;;;5.88;;
32242;SDS011;18731;42.830;24.390;2022-12-07T09:20:30;12.45;;;5.75;;
32242;SDS011;18731;42.830;24.390;2022-12-07T09:22:56;19.63;;;8.68;;
32242;SDS011;18731;42.830;24.390;2022-12-07T09:25:21;20.38;;;8.43;;
32242;SDS011;18731;42.830;24.390;2022-12-07T09:27:47;16.90;;;6.50;;
32242;SDS011;18731;42.830;24.390;2022-12-07T09:30:13;13.13;;;6.00;;
32242;SDS011;18731;42.830;24.390;2022-12-07T09:32:39;10.02;;;5.10;;
32242;SDS011;18731;42.830;24.390;2022-12-07T09:35:04;13.18;;;5.03;;
32242;SDS011;18731;42.830;24.390;2022-12-07T09:37:30;8.63;;;4.45;;
32242;SDS011;18731;42.830;24.390;2022-12-07T09:40:00;9.40;;;3.65;;
32242;SDS011;18731;42.830;24.390;2022-12-07T09:42:30;7.80;;;3.70;;
32242;SDS011;18731;42.830;24.390;2022-12-07T09:45:00;7.78;;;2.90;;
32242;SDS011;18731;42.830;24.390;2022-12-07T09:47:27;5.70;;;2.75;;
32242;SDS011;18731;42.830;24.390;2022-12-07T09:50:00;17.17;;;3.08;;
32242;SDS011;18731;42.830;24.390;2022-12-07T09:52:37;8.73;;;3.03;;
32242;SDS011;18731;42.830;24.390;2022-12-07T09:55:03;10.30;;;2.83;;
32242;SDS011;18731;42.830;24.390;2022-12-07T09:57:30;8.85;;;2.50;;
32242;SDS011;18731;42.830;24.390;2022-12-07T10:00:00;11.98;;;4.20;;
32242;SDS011;18731;42.830;24.390;2022-12-07T10:05:06;13.88;;;2.85;;
32242;SDS011;18731;42.830;24.390;2022-12-07T10:07:35;10.48;;;3.60;;
32242;SDS011;18731;42.830;24.390;2022-12-07T10:10:05;11.55;;;4.82;;
32242;SDS011;18731;42.830;24.390;2022-12-07T10:12:56;13.77;;;4.70;;
32242;SDS011;18731;42.830;24.390;2022-12-07T10:15:47;10.30;;;4.20;;
32242;SDS011;18731;42.830;24.390;2022-12-07T10:18:26;9.52;;;2.70;;
32242;SDS011;18731;42.830;24.390;2022-12-07T10:23:29;9.88;;;2.78;;
32242;SDS011;18731;42.830;24.390;2022-12-07T10:25:55;10.68;;;2.85;;
32242;SDS011;18731;42.830;24.390;2022-12-07T10:28:21;8.85;;;2.53;;
32242;SDS011;18731;42.830;24.390;2022-12-07T10:33:29;4.70;;;2.20;;
32242;SDS011;18731;42.830;24.390;2022-12-07T10:36:00;14.07;;;3.08;;
32242;SDS011;18731;42.830;24.390;2022-12-07T10:38:44;13.38;;;2.40;;
32242;SDS011;18731;42.830;24.390;2022-12-07T10:41:12;10.73;;;2.63;;
32242;SDS011;18731;42.830;24.390;2022-12-07T10:43:37;9.90;;;2.65;;
32242;SDS011;18731;42.830;24.390;2022-12-07T10:48:59;13.27;;;2.88;;
32242;SDS011;18731;42.830;24.390;2022-12-07T10:57:32;9.23;;;2.85;;
32242;SDS011;18731;42.830;24.390;2022-12-07T11:00:22;12.05;;;2.90;;
32242;SDS011;18731;42.830;24.390;2022-12-07T11:11:14;12.13;;;2.90;;
32242;SDS011;18731;42.830;24.390;2022-12-07T11:14:05;9.32;;;2.58;;
32242;SDS011;18731;42.830;24.390;2022-12-07T11:16:49;7.68;;;2.80;;
32242;SDS011;18731;42.830;24.390;2022-12-07T11:27:44;8.43;;;2.38;;
32242;SDS011;18731;42.830;24.390;2022-12-07T11:39:04;10.27;;;2.47;;
32242;SDS011;18731;42.830;24.390;2022-12-07T11:41:37;13.32;;;2.35;;
32242;SDS011;18731;42.830;24.390;2022-12-07T11:44:06;10.10;;;2.47;;
32242;SDS011;18731;42.830;24.390;2022-12-07T11:47:05;9.02;;;2.83;;
32242;SDS011;18731;42.830;24.390;2022-12-07T11:49:43;18.02;;;6.80;;
32242;SDS011;18731;42.830;24.390;2022-12-07T11:55:14;19.77;;;7.18;;
32242;SDS011;18731;42.830;24.390;2022-12-07T11:58:12;19.27;;;6.55;;
32242;SDS011;18731;42.830;24.390;2022-12-07T12:00:55;13.35;;;3.78;;
32242;SDS011;18731;42.830;24.390;2022-12-07T12:03:52;12.85;;;3.92;;
32242;SDS011;18731;42.830;24.390;2022-12-07T12:06:22;10.50;;;4.32;;
32242;SDS011;18731;42.830;24.390;2022-12-07T12:22:38;14.43;;;4.80;;
32242;SDS011;18731;42.830;24.390;2022-12-07T12:25:12;15.75;;;6.20;;
32242;SDS011;18731;42.830;24.390;2022-12-07T12:27:52;15.30;;;5.43;;
32242;SDS011;18731;42.830;24.390;2022-12-07T12:33:12;12.75;;;3.70;;
32242;SDS011;18731;42.830;24.390;2022-12-07T12:38:48;10.48;;;3.58;;
32242;SDS011;18731;42.830;24.390;2022-12-07T12:51:48;11.35;;;5.30;;
32242;SDS011;18731;42.830;24.390;2022-12-07T13:02:22;18.38;;;6.28;;
32242;SDS011;18731;42.830;24.390;2022-12-07T13:04:58;8.88;;;4.47;;
32242;SDS011;18731;42.830;24.390;2022-12-07T13:15:41;14.57;;;5.47;;
32242;SDS011;18731;42.830;24.390;2022-12-07T13:21:53;11.88;;;4.97;;
32242;SDS011;18731;42.830;24.390;2022-12-07T13:23:59;12.95;;;4.78;;
32242;SDS011;18731;42.830;24.390;2022-12-07T13:31:35;15.32;;;3.80;;
32242;SDS011;18731;42.830;24.390;2022-12-07T13:37:01;20.13;;;3.63;;
32242;SDS011;18731;42.830;24.390;2022-12-07T13:39:32;13.25;;;4.13;;
32242;SDS011;18731;42.830;24.390;2022-12-07T13:42:06;8.68;;;3.40;;
32242;SDS011;18731;42.830;24.390;2022-12-07T13:44:40;17.20;;;5.25;;
32242;SDS011;18731;42.830;24.390;2022-12-07T13:47:14;40.15;;;22.65;;
32242;SDS011;18731;42.830;24.390;2022-12-07T13:49:48;36.53;;;18.90;;
32242;SDS011;18731;42.830;24.390;2022-12-07T13:52:26;9.43;;;5.43;;
32242;SDS011;18731;42.830;24.390;2022-12-07T13:54:57;14.40;;;4.80;;
32242;SDS011;18731;42.830;24.390;2022-12-07T13:57:27;15.40;;;6.20;;
32242;SDS011;18731;42.830;24.390;2022-12-07T13:59:55;31.90;;;9.90;;
32242;SDS011;18731;42.830;24.390;2022-12-07T14:02:25;14.52;;;5.32;;
32242;SDS011;18731;42.830;24.390;2022-12-07T14:05:15;26.33;;;11.95;;
32242;SDS011;18731;42.830;24.390;2022-12-07T14:10:27;25.40;;;12.55;;
32242;SDS011;18731;42.830;24.390;2022-12-07T14:12:57;116.68;;;67.63;;
32242;SDS011;18731;42.830;24.390;2022-12-07T14:15:24;138.57;;;81.43;;
32242;SDS011;18731;42.830;24.390;2022-12-07T14:17:57;86.00;;;46.53;;
32242;SDS011;18731;42.830;24.390;2022-12-07T14:20:40;44.55;;;24.05;;
32242;SDS011;18731;42.830;24.390;2022-12-07T14:23:21;32.60;;;17.60;;
32242;SDS011;18731;42.830;24.390;2022-12-07T14:25:50;50.38;;;25.33;;
32242;SDS011;18731;42.830;24.390;2022-12-07T14:28:27;42.58;;;19.63;;
32242;SDS011;18731;42.830;24.390;2022-12-07T14:30:54;45.00;;;18.40;;
32242;SDS011;18731;42.830;24.390;2022-12-07T14:33:20;28.52;;;12.23;;
32242;SDS011;18731;42.830;24.390;2022-12-07T14:35:47;35.55;;;13.50;;
32242;SDS011;18731;42.830;24.390;2022-12-07T14:38:12;51.30;;;24.65;;
32242;SDS011;18731;42.830;24.390;2022-12-07T14:40:38;40.17;;;20.77;;
32242;SDS011;18731;42.830;24.390;2022-12-07T14:43:14;43.03;;;18.45;;
32242;SDS011;18731;42.830;24.390;2022-12-07T14:45:41;37.35;;;17.83;;
32242;SDS011;18731;42.830;24.390;2022-12-07T14:48:11;45.20;;;20.13;;
32242;SDS011;18731;42.830;24.390;2022-12-07T14:50:40;48.75;;;24.40;;
32242;SDS011;18731;42.830;24.390;2022-12-07T14:53:10;46.45;;;20.95;;
32242;SDS011;18731;42.830;24.390;2022-12-07T14:55:39;48.45;;;22.55;;
32242;SDS011;18731;42.830;24.390;2022-12-07T14:58:05;34.40;;;16.85;;
32242;SDS011;18731;42.830;24.390;2022-12-07T15:00:30;34.15;;;17.00;;
32242;SDS011;18731;42.830;24.390;2022-12-07T15:02:58;28.00;;;12.80;;
32242;SDS011;18731;42.830;24.390;2022-12-07T15:05:24;87.60;;;38.22;;
32242;SDS011;18731;42.830;24.390;2022-12-07T15:07:50;77.05;;;32.97;;
32242;SDS011;18731;42.830;24.390;2022-12-07T15:10:18;33.65;;;14.85;;
32242;SDS011;18731;42.830;24.390;2022-12-07T15:12:48;35.33;;;17.33;;
32242;SDS011;18731;42.830;24.390;2022-12-07T15:15:14;26.23;;;13.20;;
32242;SDS011;18731;42.830;24.390;2022-12-07T15:17:40;35.83;;;17.52;;
32242;SDS011;18731;42.830;24.390;2022-12-07T15:20:08;47.88;;;23.33;;
32242;SDS011;18731;42.830;24.390;2022-12-07T15:22:37;34.97;;;15.80;;
32242;SDS011;18731;42.830;24.390;2022-12-07T15:25:02;27.77;;;13.23;;
32242;SDS011;18731;42.830;24.390;2022-12-07T15:27:30;32.08;;;14.38;;
32242;SDS011;18731;42.830;24.390;2022-12-07T15:29:56;39.13;;;17.40;;
32242;SDS011;18731;42.830;24.390;2022-12-07T15:32:21;33.08;;;16.83;;
32242;SDS011;18731;42.830;24.390;2022-12-07T15:34:48;35.50;;;19.20;;
32242;SDS011;18731;42.830;24.390;2022-12-07T15:37:15;55.50;;;25.95;;
32242;SDS011;18731;42.830;24.390;2022-12-07T15:39:41;53.63;;;28.17;;
32242;SDS011;18731;42.830;24.390;2022-12-07T15:42:07;62.30;;;31.02;;
32242;SDS011;18731;42.830;24.390;2022-12-07T15:44:33;66.53;;;25.65;;
32242;SDS011;18731;42.830;24.390;2022-12-07T15:47:17;42.27;;;21.17;;
32242;SDS011;18731;42.830;24.390;2022-12-07T15:49:43;44.65;;;21.13;;
32242;SDS011;18731;42.830;24.390;2022-12-07T15:52:08;37.22;;;18.27;;
32242;SDS011;18731;42.830;24.390;2022-12-07T15:54:34;35.83;;;18.25;;
32242;SDS011;18731;42.830;24.390;2022-12-07T15:57:00;44.00;;;21.67;;
32242;SDS011;18731;42.830;24.390;2022-12-07T15:59:26;47.15;;;22.90;;
32242;SDS011;18731;42.830;24.390;2022-12-07T16:01:53;44.33;;;20.80;;
32242;SDS011;18731;42.830;24.390;2022-12-07T16:04:19;85.15;;;35.15;;
32242;SDS011;18731;42.830;24.390;2022-12-07T16:06:45;53.13;;;26.42;;
32242;SDS011;18731;42.830;24.390;2022-12-07T16:09:11;33.78;;;13.35;;
32242;SDS011;18731;42.830;24.390;2022-12-07T16:11:37;44.50;;;17.83;;
32242;SDS011;18731;42.830;24.390;2022-12-07T16:14:03;60.78;;;31.05;;
32242;SDS011;18731;42.830;24.390;2022-12-07T16:16:28;41.40;;;21.20;;
32242;SDS011;18731;42.830;24.390;2022-12-07T16:18:54;41.05;;;21.98;;
32242;SDS011;18731;42.830;24.390;2022-12-07T16:21:20;53.03;;;21.02;;
32242;SDS011;18731;42.830;24.390;2022-12-07T16:23:46;42.13;;;21.13;;
32242;SDS011;18731;42.830;24.390;2022-12-07T16:26:13;40.35;;;18.38;;
32242;SDS011;18731;42.830;24.390;2022-12-07T16:28:41;35.55;;;17.05;;
32242;SDS011;18731;42.830;24.390;2022-12-07T16:31:09;42.38;;;18.75;;
32242;SDS011;18731;42.830;24.390;2022-12-07T16:33:38;62.50;;;28.25;;
32242;SDS011;18731;42.830;24.390;2022-12-07T16:36:06;96.13;;;40.28;;
32242;SDS011;18731;42.830;24.390;2022-12-07T16:38:34;89.32;;;38.17;;
32242;SDS011;18731;42.830;24.390;2022-12-07T16:41:00;96.35;;;42.50;;
32242;SDS011;18731;42.830;24.390;2022-12-07T16:43:26;36.20;;;15.85;;
32242;SDS011;18731;42.830;24.390;2022-12-07T16:45:52;57.20;;;22.85;;
32242;SDS011;18731;42.830;24.390;2022-12-07T16:48:18;143.57;;;60.85;;
32242;SDS011;18731;42.830;24.390;2022-12-07T16:50:44;54.88;;;26.77;;
32242;SDS011;18731;42.830;24.390;2022-12-07T16:53:10;76.50;;;33.33;;
32242;SDS011;18731;42.830;24.390;2022-12-07T16:55:40;63.20;;;30.23;;
32242;SDS011;18731;42.830;24.390;2022-12-07T16:58:08;34.10;;;14.98;;
32242;SDS011;18731;42.830;24.390;2022-12-07T17:00:33;32.05;;;14.45;;
32242;SDS011;18731;42.830;24.390;2022-12-07T17:03:01;34.35;;;16.48;;
32242;SDS011;18731;42.830;24.390;2022-12-07T17:05:27;41.50;;;19.65;;
32242;SDS011;18731;42.830;24.390;2022-12-07T17:07:56;38.20;;;12.90;;
32242;SDS011;18731;42.830;24.390;2022-12-07T17:10:22;29.25;;;14.95;;
32242;SDS011;18731;42.830;24.390;2022-12-07T17:12:49;45.20;;;20.35;;
32242;SDS011;18731;42.830;24.390;2022-12-07T17:15:15;38.10;;;19.92;;
32242;SDS011;18731;42.830;24.390;2022-12-07T17:17:58;33.30;;;14.93;;
32242;SDS011;18731;42.830;24.390;2022-12-07T17:20:25;28.77;;;15.52;;
32242;SDS011;18731;42.830;24.390;2022-12-07T17:22:52;44.70;;;21.70;;
32242;SDS011;18731;42.830;24.390;2022-12-07T17:25:18;78.47;;;30.13;;
32242;SDS011;18731;42.830;24.390;2022-12-07T17:27:45;41.38;;;19.15;;
32242;SDS011;18731;42.830;24.390;2022-12-07T17:30:13;49.20;;;20.52;;
32242;SDS011;18731;42.830;24.390;2022-12-07T17:32:39;37.38;;;17.20;;
32242;SDS011;18731;42.830;24.390;2022-12-07T17:35:05;54.30;;;25.50;;
32242;SDS011;18731;42.830;24.390;2022-12-07T17:37:31;51.67;;;22.77;;
32242;SDS011;18731;42.830;24.390;2022-12-07T17:39:57;30.90;;;14.77;;
32242;SDS011;18731;42.830;24.390;2022-12-07T17:42:24;27.70;;;14.95;;
32242;SDS011;18731;42.830;24.390;2022-12-07T17:45:08;83.35;;;39.67;;
32242;SDS011;18731;42.830;24.390;2022-12-07T17:47:35;37.53;;;17.50;;
32242;SDS011;18731;42.830;24.390;2022-12-07T17:50:03;36.30;;;15.43;;
32242;SDS011;18731;42.830;24.390;2022-12-07T17:52:30;80.18;;;34.95;;
32242;SDS011;18731;42.830;24.390;2022-12-07T17:55:13;62.80;;;27.98;;
32242;SDS011;18731;42.830;24.390;2022-12-07T17:57:39;49.75;;;24.08;;
32242;SDS011;18731;42.830;24.390;2022-12-07T18:00:05;41.50;;;19.92;;
32242;SDS011;18731;42.830;24.390;2022-12-07T18:02:31;39.13;;;19.00;;
32242;SDS011;18731;42.830;24.390;2022-12-07T18:04:57;42.97;;;19.55;;
32242;SDS011;18731;42.830;24.390;2022-12-07T18:07:22;46.55;;;21.70;;
32242;SDS011;18731;42.830;24.390;2022-12-07T18:09:48;129.32;;;59.22;;
32242;SDS011;18731;42.830;24.390;2022-12-07T18:12:13;240.75;;;105.50;;
32242;SDS011;18731;42.830;24.390;2022-12-07T18:14:39;102.32;;;47.92;;
32242;SDS011;18731;42.830;24.390;2022-12-07T18:17:05;104.45;;;46.17;;
32242;SDS011;18731;42.830;24.390;2022-12-07T18:19:30;71.03;;;35.65;;
32242;SDS011;18731;42.830;24.390;2022-12-07T18:21:57;122.80;;;58.40;;
32242;SDS011;18731;42.830;24.390;2022-12-07T18:24:23;90.68;;;46.00;;
32242;SDS011;18731;42.830;24.390;2022-12-07T18:26:49;119.30;;;59.60;;
32242;SDS011;18731;42.830;24.390;2022-12-07T18:29:16;95.00;;;49.53;;
32242;SDS011;18731;42.830;24.390;2022-12-07T18:31:42;98.57;;;49.55;;
32242;SDS011;18731;42.830;24.390;2022-12-07T18:34:11;103.97;;;50.42;;
32242;SDS011;18731;42.830;24.390;2022-12-07T18:36:39;133.45;;;67.78;;
32242;SDS011;18731;42.830;24.390;2022-12-07T18:39:07;87.05;;;44.20;;
32242;SDS011;18731;42.830;24.390;2022-12-07T18:41:33;118.68;;;52.22;;
32242;SDS011;18731;42.830;24.390;2022-12-07T18:43:59;83.72;;;40.92;;
32242;SDS011;18731;42.830;24.390;2022-12-07T18:46:25;62.65;;;31.55;;
32242;SDS011;18731;42.830;24.390;2022-12-07T18:48:51;62.67;;;27.85;;
32242;SDS011;18731;42.830;24.390;2022-12-07T18:51:17;61.92;;;27.58;;
32242;SDS011;18731;42.830;24.390;2022-12-07T18:53:44;67.03;;;33.25;;
32242;SDS011;18731;42.830;24.390;2022-12-07T18:56:17;124.82;;;55.80;;
32242;SDS011;18731;42.830;24.390;2022-12-07T18:58:47;113.20;;;53.22;;
32242;SDS011;18731;42.830;24.390;2022-12-07T19:01:36;137.73;;;60.40;;
32242;SDS011;18731;42.830;24.390;2022-12-07T19:04:03;105.03;;;47.72;;
32242;SDS011;18731;42.830;24.390;2022-12-07T19:06:29;90.70;;;40.80;;
32242;SDS011;18731;42.830;24.390;2022-12-07T19:08:55;138.13;;;58.40;;
32242;SDS011;18731;42.830;24.390;2022-12-07T19:11:26;114.38;;;50.47;;
32242;SDS011;18731;42.830;24.390;2022-12-07T19:14:12;104.28;;;43.72;;
32242;SDS011;18731;42.830;24.390;2022-12-07T19:16:39;98.35;;;44.33;;
32242;SDS011;18731;42.830;24.390;2022-12-07T19:19:06;92.32;;;41.35;;